CST,Max TemperatureF,Mean TemperatureF,Min TemperatureF,Max Dew PointF,MeanDew PointF,Min DewpointF,Max Humidity, Mean Humidity, Min Humidity, Max Sea Level PressureIn, Mean Sea Level PressureIn, Min Sea Level PressureIn, Max VisibilityMiles, Mean VisibilityMiles, Min VisibilityMiles, Max Wind SpeedMPH, Mean Wind SpeedMPH, Max Gust SpeedMPH,PrecipitationIn, CloudCover, Events, WindDirDegrees
2012-11-1,43,35,26,31,26,19,88,64,41,30.08,29.96,29.87,10,10,10,15,7,23,0.00,7,,317
2012-11-2,39,29,21,25,22,18,93,75,55,30.27,30.19,30.09,10,10,10,10,6,,0.00,4,,12
2012-11-3,41,34,28,27,24,22,88,73,58,30.32,30.29,30.25,10,10,8,9,4,,0.00,5,Snow,81
2012-11-4,41,34,26,27,25,24,93,73,55,30.33,30.29,30.23,10,10,10,13,3,16,0.00,5,,62
2012-11-5,41,34,28,28,25,23,82,71,53,30.31,30.20,29.98,10,10,10,9,3,,0.00,6,,146
2012-11-6,39,37,35,36,33,27,93,84,60,29.95,29.83,29.76,10,8,3,12,7,17,0.00,8,,191
2012-11-7,41,38,35,37,35,34,100,91,79,30.12,30.05,29.93,10,10,8,6,4,,0.00,8,,245
2012-11-8,53,45,37,36,34,31,93,73,47,30.09,30.02,29.91,10,10,9,17,6,24,0.00,4,,206
2012-11-9,43,40,37,38,36,32,93,86,80,30.18,30.15,30.08,10,9,2,17,10,23,0.00,8,,52
2012-11-10,45,40,35,45,39,30,100,93,76,30.14,29.78,29.53,10,4,0,15,9,24,0.00,8,Fog-Rain-Thunderstorm,56
2012-11-11,60,44,27,54,39,18,100,84,69,29.83,29.64,29.51,10,10,2,16,9,30,0.00,8,Rain-Snow,248
2012-11-12,26,24,21,18,15,10,75,67,60,30.24,29.96,29.83,10,9,2,17,12,26,0.00,8,Snow,246
2012-11-13,37,29,21,22,17,14,80,63,41,30.39,30.34,30.26,10,10,10,13,9,20,0.00,4,,222
2012-11-14,46,38,30,28,27,22,88,67,50,30.34,30.27,30.19,10,10,10,9,5,,0.00,5,,200
2012-11-15,52,36,21,32,23,12,85,59,34,30.50,30.27,30.14,10,10,10,14,7,20,0.00,1,,263
2012-11-16,41,28,16,23,19,13,92,75,43,30.56,30.49,30.41,10,10,10,7,3,,0.00,0,,256
2012-11-17,54,44,33,35,33,29,89,66,49,30.40,30.32,30.27,10,9,5,15,8,23,0.00,2,,193
2012-11-18,57,51,45,32,29,28,56,46,33,30.29,30.19,30.11,10,10,10,12,7,21,0.00,5,,189
2012-11-19,52,44,37,44,36,31,89,67,52,30.14,30.09,30.05,10,10,9,9,5,,0.00,5,,204
2012-11-20,39,32,26,36,33,25,100,94,86,30.20,30.14,30.08,10,2,0,7,3,,0.00,5,Fog,255
2012-11-21,52,38,24,39,30,21,100,86,57,30.08,29.95,29.72,10,6,0,9,1,,0.00,0,Fog,207
2012-11-22,61,44,26,43,34,24,96,73,46,29.73,29.65,29.56,10,6,0,21,13,26,0.00,4,Fog-Snow,248
2012-11-23,28,24,19,27,21,14,93,84,68,30.33,29.98,29.70,10,5,0,22,14,29,0.00,8,Fog-Snow,312
2012-11-24,24,20,17,21,16,11,93,80,63,30.32,30.05,29.80,10,6,1,13,5,18,0.00,7,Snow,222
2012-11-25,26,22,18,21,19,11,92,80,69,30.16,29.94,29.78,10,7,2,15,7,20,0.00,8,Snow,267
2012-11-26,18,14,9,11,7,3,86,74,61,30.40,30.32,30.17,10,8,2,12,7,,0.00,5,Snow,258
2012-11-27,27,22,16,22,17,8,85,77,63,30.32,30.17,30.07,10,7,1,12,8,17,0.00,7,Snow,241
2012-11-28,28,24,19,20,15,10,78,71,65,30.35,30.24,30.14,10,10,8,13,8,,0.00,5,Snow,257
2012-11-29,28,23,18,25,21,16,93,82,74,30.30,30.23,30.14,10,9,6,17,6,23,0.00,7,,67
2012-11-30,32,29,26,28,22,20,85,78,69,30.32,30.25,30.12,10,10,10,12,7,,0.00,8,,75